Hlavní strana
METAR-TAF:

METAR-TAF

Letiště :

Kokomo Municipal Airport

Kokomo, Indiana, Spojené státy americké

zeměpisná šířka: 40-32N, zeměpisná délka: 086-04W, výška: 253 m

Aktuální stav počasí

Zpráva byla vytvořena před 1 hodinou a 3 minutami, v 02:56 UTC
Západoseverozápadní vítr 4 kt
Teplota -12°C
Vlhkost vzduchu 72%
Tlak 1028 hPa
Viditelnost: 14.5 km
Zataženo ve výšce 4600 ft
slabé sněžení

METAR: KOKK 210256Z AUTO 29004KT 9SM -SN OVC046 M12/M16 A3037 RMK AO2 SLP303 P0000 60000 T11221156 51013 FZRANO

Čas: 22:59 (03:59 UTC)


TAF: chybějící

Stav a předpovědi počasí z více než 4 000 letišť (zprávy METAR a TAF).

Červené a žluté tečky na mapě představují dostupné meteorologické stanice.

Když kurzor umístíte na tečku, zobrazí se název stanice.

Pak kliknutím zobrazíte stav a předpověď počasí.

Chcete-li změnit mapu, kliknutím na zelené tlačítko se znaménkem +mapu přiblížíte, kliknutím na zelené tlačítko se znaménkem – mapu oddálíte a kliknutím na zelené šipky přejdete na sousední mapy.


METAR-TAF: